sensor_id;sensor_type;location;lat;lon;timestamp;pressure;altitude;pressure_sealevel;temperature;humidity
37610;BME280;23457;51.966;8.230;2023-08-08T00:02:26;100696.94;;;14.33;100.00
37610;BME280;23457;51.966;8.230;2023-08-08T00:04:53;100688.25;;;14.49;100.00
37610;BME280;23457;51.966;8.230;2023-08-08T00:07:20;100679.53;;;14.44;100.00
37610;BME280;23457;51.966;8.230;2023-08-08T00:09:47;100676.03;;;14.39;100.00
37610;BME280;23457;51.966;8.230;2023-08-08T00:12:14;100669.09;;;14.41;100.00
37610;BME280;23457;51.966;8.230;2023-08-08T00:14:40;100676.06;;;14.51;100.00
37610;BME280;23457;51.966;8.230;2023-08-08T00:17:07;100669.94;;;14.37;100.00
37610;BME280;23457;51.966;8.230;2023-08-08T00:19:34;100672.59;;;14.40;100.00
37610;BME280;23457;51.966;8.230;2023-08-08T00:22:00;100672.59;;;14.55;100.00
37610;BME280;23457;51.966;8.230;2023-08-08T00:24:27;100663.88;;;14.56;100.00
37610;BME280;23457;51.966;8.230;2023-08-08T00:26:54;100655.13;;;14.66;100.00
37610;BME280;23457;51.966;8.230;2023-08-08T00:29:20;100658.59;;;14.72;100.00
37610;BME280;23457;51.966;8.230;2023-08-08T00:31:47;100665.56;;;14.76;100.00
37610;BME280;23457;51.966;8.230;2023-08-08T00:34:14;100658.63;;;14.67;100.00
37610;BME280;23457;51.966;8.230;2023-08-08T00:36:40;100655.97;;;14.70;100.00
37610;BME280;23457;51.966;8.230;2023-08-08T00:39:07;100650.75;;;14.79;100.00
37610;BME280;23457;51.966;8.230;2023-08-08T00:41:34;100645.50;;;14.76;100.00
37610;BME280;23457;51.966;8.230;2023-08-08T00:44:02;100638.50;;;14.83;100.00
37610;BME280;23457;51.966;8.230;2023-08-08T00:46:28;100642.91;;;14.72;100.00
37610;BME280;23457;51.966;8.230;2023-08-08T00:48:55;100638.50;;;14.87;100.00
37610;BME280;23457;51.966;8.230;2023-08-08T00:51:23;100629.78;;;14.88;100.00
37610;BME280;23457;51.966;8.230;2023-08-08T00:53:50;100627.16;;;14.84;100.00
37610;BME280;23457;51.966;8.230;2023-08-08T00:56:18;100621.13;;;14.59;100.00
37610;BME280;23457;51.966;8.230;2023-08-08T00:58:45;100623.75;;;14.63;100.00
37610;BME280;23457;51.966;8.230;2023-08-08T01:01:12;100626.31;;;14.71;100.00
37610;BME280;23457;51.966;8.230;2023-08-08T01:03:39;100628.91;;;14.85;100.00
37610;BME280;23457;51.966;8.230;2023-08-08T01:06:19;100634.97;;;14.99;100.00
37610;BME280;23457;51.966;8.230;2023-08-08T01:09:08;100635.03;;;14.73;100.00
37610;BME280;23457;51.966;8.230;2023-08-08T01:11:36;100629.78;;;14.85;100.00
37610;BME280;23457;51.966;8.230;2023-08-08T01:14:04;100632.44;;;14.73;100.00
37610;BME280;23457;51.966;8.230;2023-08-08T01:16:32;100630.69;;;14.77;100.00
37610;BME280;23457;51.966;8.230;2023-08-08T01:19:00;100619.34;;;14.75;100.00
37610;BME280;23457;51.966;8.230;2023-08-08T01:21:28;100623.72;;;14.82;100.00
37610;BME280;23457;51.966;8.230;2023-08-08T01:24:11;100619.31;;;14.88;100.00
37610;BME280;23457;51.966;8.230;2023-08-08T01:26:38;100620.16;;;14.95;100.00
37610;BME280;23457;51.966;8.230;2023-08-08T01:29:05;100612.34;;;14.89;100.00
37610;BME280;23457;51.966;8.230;2023-08-08T01:31:31;100621.00;;;15.01;100.00
37610;BME280;23457;51.966;8.230;2023-08-08T01:33:58;100619.31;;;14.90;100.00
37610;BME280;23457;51.966;8.230;2023-08-08T01:36:30;100615.81;;;14.86;100.00
37610;BME280;23457;51.966;8.230;2023-08-08T01:39:00;100614.94;;;14.83;100.00
37610;BME280;23457;51.966;8.230;2023-08-08T01:41:35;100613.16;;;14.97;100.00
37610;BME280;23457;51.966;8.230;2023-08-08T01:44:05;100602.78;;;14.74;100.00
37610;BME280;23457;51.966;8.230;2023-08-08T01:46:33;100611.53;;;14.62;100.00
37610;BME280;23457;51.966;8.230;2023-08-08T01:49:00;100603.66;;;14.76;100.00
37610;BME280;23457;51.966;8.230;2023-08-08T01:51:27;100614.13;;;14.78;100.00
37610;BME280;23457;51.966;8.230;2023-08-08T01:53:54;100613.28;;;14.63;100.00
37610;BME280;23457;51.966;8.230;2023-08-08T01:56:21;100625.47;;;14.61;100.00
37610;BME280;23457;51.966;8.230;2023-08-08T01:58:48;100615.91;;;14.45;100.00
37610;BME280;23457;51.966;8.230;2023-08-08T02:01:15;100611.56;;;14.56;100.00
37610;BME280;23457;51.966;8.230;2023-08-08T02:03:42;100609.78;;;14.58;100.00
37610;BME280;23457;51.966;8.230;2023-08-08T02:06:10;100610.66;;;14.60;100.00
37610;BME280;23457;51.966;8.230;2023-08-08T02:08:37;100602.81;;;14.57;100.00
37610;BME280;23457;51.966;8.230;2023-08-08T02:11:03;100600.25;;;14.42;100.00
37610;BME280;23457;51.966;8.230;2023-08-08T02:13:30;100595.00;;;14.48;100.00
37610;BME280;23457;51.966;8.230;2023-08-08T02:15:57;100593.25;;;14.46;100.00
37610;BME280;23457;51.966;8.230;2023-08-08T02:18:25;100586.25;;;14.34;100.00
37610;BME280;23457;51.966;8.230;2023-08-08T02:20:52;100583.69;;;14.31;100.00
37610;BME280;23457;51.966;8.230;2023-08-08T02:23:19;100570.59;;;14.48;100.00
37610;BME280;23457;51.966;8.230;2023-08-08T02:25:46;100574.06;;;14.33;100.00
37610;BME280;23457;51.966;8.230;2023-08-08T02:28:13;100570.56;;;14.34;100.00
37610;BME280;23457;51.966;8.230;2023-08-08T02:30:41;100580.19;;;14.26;100.00
37610;BME280;23457;51.966;8.230;2023-08-08T02:33:09;100580.22;;;14.41;100.00
37610;BME280;23457;51.966;8.230;2023-08-08T02:35:37;100573.22;;;14.07;100.00
37610;BME280;23457;51.966;8.230;2023-08-08T02:38:04;100573.22;;;14.14;100.00
37610;BME280;23457;51.966;8.230;2023-08-08T02:40:31;100576.72;;;14.18;100.00
37610;BME280;23457;51.966;8.230;2023-08-08T02:42:59;100575.81;;;14.19;100.00
37610;BME280;23457;51.966;8.230;2023-08-08T02:45:26;100584.53;;;14.33;100.00
37610;BME280;23457;51.966;8.230;2023-08-08T02:47:53;100580.16;;;14.33;100.00
37610;BME280;23457;51.966;8.230;2023-08-08T02:50:20;100574.09;;;14.13;100.00
37610;BME280;23457;51.966;8.230;2023-08-08T02:52:47;100568.88;;;14.09;100.00
37610;BME280;23457;51.966;8.230;2023-08-08T02:55:14;100567.13;;;14.26;100.00
37610;BME280;23457;51.966;8.230;2023-08-08T02:57:44;100573.22;;;14.20;100.00
37610;BME280;23457;51.966;8.230;2023-08-08T03:00:11;100575.84;;;14.28;100.00
37610;BME280;23457;51.966;8.230;2023-08-08T03:02:42;100569.72;;;14.35;100.00
37610;BME280;23457;51.966;8.230;2023-08-08T03:05:12;100563.59;;;14.31;100.00
37610;BME280;23457;51.966;8.230;2023-08-08T03:07:38;100573.19;;;14.32;100.00
37610;BME280;23457;51.966;8.230;2023-08-08T03:10:05;100555.78;;;14.48;100.00
37610;BME280;23457;51.966;8.230;2023-08-08T03:12:33;100550.53;;;14.47;100.00
37610;BME280;23457;51.966;8.230;2023-08-08T03:15:00;100554.03;;;14.44;100.00
37610;BME280;23457;51.966;8.230;2023-08-08T03:17:27;100552.25;;;14.60;100.00
37610;BME280;23457;51.966;8.230;2023-08-08T03:19:55;100548.78;;;14.55;100.00
37610;BME280;23457;51.966;8.230;2023-08-08T03:22:22;100542.69;;;14.56;100.00
37610;BME280;23457;51.966;8.230;2023-08-08T03:24:49;100536.59;;;14.54;100.00
37610;BME280;23457;51.966;8.230;2023-08-08T03:27:16;100540.94;;;14.47;100.00
37610;BME280;23457;51.966;8.230;2023-08-08T03:29:46;100541.84;;;14.42;100.00
37610;BME280;23457;51.966;8.230;2023-08-08T03:32:15;100534.00;;;14.42;100.00
37610;BME280;23457;51.966;8.230;2023-08-08T03:34:42;100533.09;;;14.46;100.00
37610;BME280;23457;51.966;8.230;2023-08-08T03:37:11;100510.44;;;14.55;100.00
37610;BME280;23457;51.966;8.230;2023-08-08T03:39:38;100518.28;;;14.51;100.00
37610;BME280;23457;51.966;8.230;2023-08-08T03:42:05;100518.25;;;14.61;100.00
37610;BME280;23457;51.966;8.230;2023-08-08T03:44:31;100523.53;;;14.39;100.00
37610;BME280;23457;51.966;8.230;2023-08-08T03:46:58;100519.16;;;14.33;100.00
37610;BME280;23457;51.966;8.230;2023-08-08T03:49:43;100513.94;;;14.54;100.00
37610;BME280;23457;51.966;8.230;2023-08-08T03:52:10;100509.53;;;14.61;100.00
37610;BME280;23457;51.966;8.230;2023-08-08T03:54:38;100515.69;;;14.52;100.00
37610;BME280;23457;51.966;8.230;2023-08-08T03:57:04;100526.97;;;14.66;100.00
37610;BME280;23457;51.966;8.230;2023-08-08T03:59:31;100525.25;;;14.56;100.00
37610;BME280;23457;51.966;8.230;2023-08-08T04:01:58;100520.88;;;14.61;100.00
37610;BME280;23457;51.966;8.230;2023-08-08T04:04:25;100516.53;;;14.56;100.00
37610;BME280;23457;51.966;8.230;2023-08-08T04:06:52;100524.41;;;14.33;100.00
37610;BME280;23457;51.966;8.230;2023-08-08T04:09:19;100531.41;;;14.40;100.00
37610;BME280;23457;51.966;8.230;2023-08-08T04:11:45;100521.78;;;14.34;100.00
37610;BME280;23457;51.966;8.230;2023-08-08T04:14:12;100533.94;;;14.61;100.00
37610;BME280;23457;51.966;8.230;2023-08-08T04:16:39;100525.25;;;14.46;100.00
37610;BME280;23457;51.966;8.230;2023-08-08T04:19:06;100517.44;;;14.38;100.00
37610;BME280;23457;51.966;8.230;2023-08-08T04:21:32;100518.28;;;14.51;100.00
37610;BME280;23457;51.966;8.230;2023-08-08T04:23:59;100520.00;;;14.58;100.00
37610;BME280;23457;51.966;8.230;2023-08-08T04:26:26;100526.13;;;14.51;100.00
37610;BME280;23457;51.966;8.230;2023-08-08T04:28:53;100524.38;;;14.51;100.00
37610;BME280;23457;51.966;8.230;2023-08-08T04:31:20;100528.75;;;14.54;100.00
37610;BME280;23457;51.966;8.230;2023-08-08T04:33:46;100524.41;;;14.39;100.00
37610;BME280;23457;51.966;8.230;2023-08-08T04:36:14;100527.88;;;14.44;100.00
37610;BME280;23457;51.966;8.230;2023-08-08T04:38:42;100531.38;;;14.54;100.00
37610;BME280;23457;51.966;8.230;2023-08-08T04:41:08;100527.91;;;14.41;100.00
37610;BME280;23457;51.966;8.230;2023-08-08T04:43:35;100527.84;;;14.65;100.00
37610;BME280;23457;51.966;8.230;2023-08-08T04:46:02;100518.19;;;14.74;100.00
37610;BME280;23457;51.966;8.230;2023-08-08T04:48:29;100515.69;;;14.52;100.00
37610;BME280;23457;51.966;8.230;2023-08-08T04:50:55;100512.97;;;14.74;100.00
37610;BME280;23457;51.966;8.230;2023-08-08T04:53:22;100521.75;;;14.59;100.00
37610;BME280;23457;51.966;8.230;2023-08-08T04:55:49;100509.53;;;14.62;100.00
37610;BME280;23457;51.966;8.230;2023-08-08T04:58:16;100512.19;;;14.50;100.00
37610;BME280;23457;51.966;8.230;2023-08-08T05:00:43;100508.66;;;14.60;100.00
37610;BME280;23457;51.966;8.230;2023-08-08T05:03:10;100514.81;;;14.47;100.00
37610;BME280;23457;51.966;8.230;2023-08-08T05:05:36;100515.63;;;14.67;100.00
37610;BME280;23457;51.966;8.230;2023-08-08T05:08:03;100504.28;;;14.67;100.00
37610;BME280;23457;51.966;8.230;2023-08-08T05:10:30;100507.78;;;14.58;100.00
37610;BME280;23457;51.966;8.230;2023-08-08T05:12:57;100517.31;;;14.78;100.00
37610;BME280;23457;51.966;8.230;2023-08-08T05:15:25;100520.75;;;14.89;100.00
37610;BME280;23457;51.966;8.230;2023-08-08T05:17:52;100519.88;;;14.85;100.00
37610;BME280;23457;51.966;8.230;2023-08-08T05:20:21;100508.47;;;15.00;100.00
37610;BME280;23457;51.966;8.230;2023-08-08T05:22:49;100505.06;;;14.86;100.00
37610;BME280;23457;51.966;8.230;2023-08-08T05:25:16;100509.34;;;15.00;100.00
37610;BME280;23457;51.966;8.230;2023-08-08T05:27:43;100505.88;;;15.00;100.00
37610;BME280;23457;51.966;8.230;2023-08-08T05:30:10;100508.50;;;14.97;100.00
37610;BME280;23457;51.966;8.230;2023-08-08T05:32:37;100505.06;;;14.86;100.00
37610;BME280;23457;51.966;8.230;2023-08-08T05:35:04;100498.94;;;14.93;100.00
37610;BME280;23457;51.966;8.230;2023-08-08T05:37:31;100502.44;;;14.93;100.00
37610;BME280;23457;51.966;8.230;2023-08-08T05:39:58;100505.94;;;14.88;100.00
37610;BME280;23457;51.966;8.230;2023-08-08T05:42:24;100509.47;;;14.78;100.00
37610;BME280;23457;51.966;8.230;2023-08-08T05:44:51;100496.31;;;14.93;100.00
37610;BME280;23457;51.966;8.230;2023-08-08T05:47:18;100500.69;;;14.92;100.00
37610;BME280;23457;51.966;8.230;2023-08-08T05:49:45;100498.06;;;14.94;100.00
37610;BME280;23457;51.966;8.230;2023-08-08T05:52:11;100491.91;;;15.04;100.00
37610;BME280;23457;51.966;8.230;2023-08-08T05:54:38;100498.00;;;15.06;100.00
37610;BME280;23457;51.966;8.230;2023-08-08T05:57:05;100496.34;;;14.90;100.00
37610;BME280;23457;51.966;8.230;2023-08-08T05:59:32;100498.91;;;14.97;100.00
37610;BME280;23457;51.966;8.230;2023-08-08T06:01:58;100507.66;;;14.93;100.00
37610;BME280;23457;51.966;8.230;2023-08-08T06:04:26;100499.81;;;14.93;100.00
37610;BME280;23457;51.966;8.230;2023-08-08T06:06:53;100501.44;;;15.11;100.00
37610;BME280;23457;51.966;8.230;2023-08-08T06:09:19;100504.13;;;15.02;100.00
37610;BME280;23457;51.966;8.230;2023-08-08T06:11:46;100508.31;;;15.27;100.00
37610;BME280;23457;51.966;8.230;2023-08-08T06:14:13;100509.28;;;15.19;100.00
37610;BME280;23457;51.966;8.230;2023-08-08T06:16:40;100509.28;;;15.13;100.00
37610;BME280;23457;51.966;8.230;2023-08-08T06:19:07;100506.69;;;15.11;100.00
37610;BME280;23457;51.966;8.230;2023-08-08T06:21:35;100509.22;;;15.22;100.00
37610;BME280;23457;51.966;8.230;2023-08-08T06:24:02;100514.44;;;15.28;100.00
37610;BME280;23457;51.966;8.230;2023-08-08T06:26:29;100510.16;;;15.16;100.00
37610;BME280;23457;51.966;8.230;2023-08-08T06:28:56;100513.63;;;15.18;100.00
37610;BME280;23457;51.966;8.230;2023-08-08T06:31:23;100516.97;;;15.41;100.00
37610;BME280;23457;51.966;8.230;2023-08-08T06:33:50;100513.41;;;15.55;100.00
37610;BME280;23457;51.966;8.230;2023-08-08T06:36:16;100514.22;;;15.60;100.00
37610;BME280;23457;51.966;8.230;2023-08-08T06:38:43;100512.47;;;15.62;100.00
37610;BME280;23457;51.966;8.230;2023-08-08T06:41:10;100516.03;;;15.49;100.00
37610;BME280;23457;51.966;8.230;2023-08-08T06:43:37;100509.88;;;15.59;100.00
37610;BME280;23457;51.966;8.230;2023-08-08T06:46:03;100520.34;;;15.62;100.00
37610;BME280;23457;51.966;8.230;2023-08-08T06:48:31;100515.00;;;15.71;100.00
37610;BME280;23457;51.966;8.230;2023-08-08T06:50:58;100516.63;;;15.87;100.00
37610;BME280;23457;51.966;8.230;2023-08-08T06:53:24;100528.75;;;15.97;100.00
37610;BME280;23457;51.966;8.230;2023-08-08T06:55:51;100527.13;;;15.84;100.00
37610;BME280;23457;51.966;8.230;2023-08-08T06:58:18;100525.19;;;16.07;100.00
37610;BME280;23457;51.966;8.230;2023-08-08T07:00:45;100519.13;;;16.01;100.00
37610;BME280;23457;51.966;8.230;2023-08-08T07:03:11;100511.34;;;15.92;100.00
37610;BME280;23457;51.966;8.230;2023-08-08T07:05:38;100527.72;;;16.17;100.00
37610;BME280;23457;51.966;8.230;2023-08-08T07:08:06;100513.00;;;16.02;100.00
37610;BME280;23457;51.966;8.230;2023-08-08T07:10:33;100509.41;;;16.13;100.00
37610;BME280;23457;51.966;8.230;2023-08-08T07:13:00;100516.63;;;15.87;100.00
37610;BME280;23457;51.966;8.230;2023-08-08T07:15:27;100511.28;;;15.96;100.00
37610;BME280;23457;51.966;8.230;2023-08-08T07:17:54;100507.88;;;15.90;100.00
37610;BME280;23457;51.966;8.230;2023-08-08T07:20:21;100518.47;;;15.76;100.00
37610;BME280;23457;51.966;8.230;2023-08-08T07:22:49;100516.38;;;16.15;100.00
37610;BME280;23457;51.966;8.230;2023-08-08T07:25:16;100510.34;;;16.05;100.00
37610;BME280;23457;51.966;8.230;2023-08-08T07:27:42;100507.78;;;15.99;100.00
37610;BME280;23457;51.966;8.230;2023-08-08T07:30:09;100514.72;;;16.06;100.00
37610;BME280;23457;51.966;8.230;2023-08-08T07:32:36;100501.41;;;16.26;100.00
37610;BME280;23457;51.966;8.230;2023-08-08T07:35:04;100505.72;;;16.33;100.00
37610;BME280;23457;51.966;8.230;2023-08-08T07:37:32;100500.66;;;16.11;100.00
37610;BME280;23457;51.966;8.230;2023-08-08T07:40:00;100494.56;;;16.09;100.00
37610;BME280;23457;51.966;8.230;2023-08-08T07:42:27;100513.88;;;16.02;100.00
37610;BME280;23457;51.966;8.230;2023-08-08T07:44:54;100497.97;;;16.21;100.00
37610;BME280;23457;51.966;8.230;2023-08-08T07:47:21;100494.28;;;16.37;100.00
37610;BME280;23457;51.966;8.230;2023-08-08T07:49:48;100493.56;;;16.23;100.00
37610;BME280;23457;51.966;8.230;2023-08-08T07:52:15;100492.81;;;16.11;100.00
37610;BME280;23457;51.966;8.230;2023-08-08T07:54:43;100497.00;;;16.28;100.00
37610;BME280;23457;51.966;8.230;2023-08-08T07:57:09;100495.38;;;16.18;100.00
37610;BME280;23457;51.966;8.230;2023-08-08T07:59:37;100492.63;;;16.31;100.00
37610;BME280;23457;51.966;8.230;2023-08-08T08:02:04;100503.88;;;16.38;100.00
37610;BME280;23457;51.966;8.230;2023-08-08T08:04:32;100496.72;;;16.52;100.00
37610;BME280;23457;51.966;8.230;2023-08-08T08:06:59;100500.16;;;16.59;100.00
37610;BME280;23457;51.966;8.230;2023-08-08T08:09:25;100495.88;;;16.50;100.00
37610;BME280;23457;51.966;8.230;2023-08-08T08:11:52;100496.72;;;16.55;100.00
37610;BME280;23457;51.966;8.230;2023-08-08T08:14:20;100493.13;;;16.62;100.00
37610;BME280;23457;51.966;8.230;2023-08-08T08:16:47;100498.22;;;16.77;100.00
37610;BME280;23457;51.966;8.230;2023-08-08T08:19:15;100491.88;;;16.94;100.00
37610;BME280;23457;51.966;8.230;2023-08-08T08:21:41;100492.50;;;17.11;100.00
37610;BME280;23457;51.966;8.230;2023-08-08T08:24:08;100490.00;;;17.02;100.00
37610;BME280;23457;51.966;8.230;2023-08-08T08:26:35;100496.56;;;16.70;100.00
37610;BME280;23457;51.966;8.230;2023-08-08T08:29:01;100497.28;;;16.81;100.00
37610;BME280;23457;51.966;8.230;2023-08-08T08:31:28;100491.34;;;16.67;100.00
37610;BME280;23457;51.966;8.230;2023-08-08T08:33:55;100492.22;;;16.66;100.00
37610;BME280;23457;51.966;8.230;2023-08-08T08:36:22;100490.44;;;16.71;100.00
37610;BME280;23457;51.966;8.230;2023-08-08T08:38:48;100491.22;;;16.76;100.00
37610;BME280;23457;51.966;8.230;2023-08-08T08:41:18;100492.97;;;16.77;100.00
37610;BME280;23457;51.966;8.230;2023-08-08T08:43:48;100482.47;;;16.77;100.00
37610;BME280;23457;51.966;8.230;2023-08-08T08:46:16;100486.50;;;17.01;100.00
37610;BME280;23457;51.966;8.230;2023-08-08T08:48:49;100472.31;;;17.14;100.00
37610;BME280;23457;51.966;8.230;2023-08-08T08:51:16;100486.94;;;17.32;100.00
37610;BME280;23457;51.966;8.230;2023-08-08T08:53:43;100482.16;;;16.99;100.00
37610;BME280;23457;51.966;8.230;2023-08-08T08:56:14;100483.91;;;17.00;100.00
37610;BME280;23457;51.966;8.230;2023-08-08T08:58:41;100473.03;;;17.24;100.00
37610;BME280;23457;51.966;8.230;2023-08-08T09:01:08;100479.84;;;17.37;100.00
37610;BME280;23457;51.966;8.230;2023-08-08T09:03:36;100473.19;;;17.13;100.00
37610;BME280;23457;51.966;8.230;2023-08-08T09:06:04;100479.94;;;17.31;100.00
37610;BME280;23457;51.966;8.230;2023-08-08T09:08:31;100470.44;;;17.23;100.00
37610;BME280;23457;51.966;8.230;2023-08-08T09:10:58;100484.09;;;17.46;100.00
37610;BME280;23457;51.966;8.230;2023-08-08T09:13:25;100477.31;;;17.31;100.00
37610;BME280;23457;51.966;8.230;2023-08-08T09:15:53;100496.63;;;17.29;100.00
37610;BME280;23457;51.966;8.230;2023-08-08T09:18:23;100477.81;;;17.54;100.00
37610;BME280;23457;51.966;8.230;2023-08-08T09:20:51;100481.69;;;17.86;100.00
37610;BME280;23457;51.966;8.230;2023-08-08T09:23:17;100480.13;;;17.76;99.11
37610;BME280;23457;51.966;8.230;2023-08-08T09:25:44;100473.00;;;17.82;100.00
37610;BME280;23457;51.966;8.230;2023-08-08T09:28:12;100465.66;;;18.00;98.04
37610;BME280;23457;51.966;8.230;2023-08-08T09:30:42;100468.84;;;18.18;99.00
37610;BME280;23457;51.966;8.230;2023-08-08T09:33:09;100464.88;;;18.42;95.44
37610;BME280;23457;51.966;8.230;2023-08-08T09:35:38;100473.50;;;18.49;95.19
37610;BME280;23457;51.966;8.230;2023-08-08T09:38:05;100467.91;;;18.22;95.93
37610;BME280;23457;51.966;8.230;2023-08-08T09:40:32;100462.94;;;18.50;94.13
37610;BME280;23457;51.966;8.230;2023-08-08T09:42:59;100466.06;;;18.71;94.36
37610;BME280;23457;51.966;8.230;2023-08-08T09:45:26;100460.75;;;18.74;92.25
37610;BME280;23457;51.966;8.230;2023-08-08T09:47:52;100456.22;;;18.79;91.75
37610;BME280;23457;51.966;8.230;2023-08-08T09:50:20;100468.88;;;18.17;88.80
37610;BME280;23457;51.966;8.230;2023-08-08T09:52:47;100471.19;;;17.86;89.71
37610;BME280;23457;51.966;8.230;2023-08-08T09:55:14;100470.84;;;18.04;90.25
37610;BME280;23457;51.966;8.230;2023-08-08T09:57:41;100471.09;;;17.92;90.88
37610;BME280;23457;51.966;8.230;2023-08-08T10:00:09;100464.56;;;18.11;90.31
37610;BME280;23457;51.966;8.230;2023-08-08T10:02:47;100458.81;;;17.93;89.16
37610;BME280;23457;51.966;8.230;2023-08-08T10:05:15;100467.16;;;18.14;88.29
37610;BME280;23457;51.966;8.230;2023-08-08T10:07:43;100458.31;;;18.63;86.13
37610;BME280;23457;51.966;8.230;2023-08-08T10:10:13;100458.16;;;18.71;83.69
37610;BME280;23457;51.966;8.230;2023-08-08T10:12:40;100462.09;;;18.91;84.79
37610;BME280;23457;51.966;8.230;2023-08-08T10:15:09;100467.69;;;19.15;82.48
37610;BME280;23457;51.966;8.230;2023-08-08T10:17:38;100457.53;;;19.00;79.12
37610;BME280;23457;51.966;8.230;2023-08-08T10:20:07;100459.03;;;19.11;79.11
37610;BME280;23457;51.966;8.230;2023-08-08T10:22:43;100459.47;;;19.65;80.91
37610;BME280;23457;51.966;8.230;2023-08-08T10:25:37;100468.91;;;19.76;77.13
37610;BME280;23457;51.966;8.230;2023-08-08T10:28:11;100468.34;;;19.63;75.74
37610;BME280;23457;51.966;8.230;2023-08-08T10:30:59;100445.03;;;19.45;71.17
37610;BME280;23457;51.966;8.230;2023-08-08T10:33:39;100470.50;;;19.81;70.13
37610;BME280;23457;51.966;8.230;2023-08-08T10:36:07;100465.84;;;19.91;68.54
37610;BME280;23457;51.966;8.230;2023-08-08T10:41:11;100484.28;;;20.26;70.58
37610;BME280;23457;51.966;8.230;2023-08-08T10:43:38;100468.31;;;20.29;67.79
37610;BME280;23457;51.966;8.230;2023-08-08T10:46:12;100477.44;;;20.18;68.45
37610;BME280;23457;51.966;8.230;2023-08-08T10:48:51;100471.47;;;19.77;69.08
37610;BME280;23457;51.966;8.230;2023-08-08T10:51:18;100477.06;;;19.28;68.06
37610;BME280;23457;51.966;8.230;2023-08-08T10:53:46;100466.16;;;19.06;69.21
37610;BME280;23457;51.966;8.230;2023-08-08T10:56:13;100468.66;;;19.12;69.13
37610;BME280;23457;51.966;8.230;2023-08-08T10:58:46;100467.69;;;19.15;70.24
37610;BME280;23457;51.966;8.230;2023-08-08T11:01:13;100461.47;;;19.19;71.21
37610;BME280;23457;51.966;8.230;2023-08-08T11:03:41;100462.53;;;19.12;69.84
37610;BME280;23457;51.966;8.230;2023-08-08T11:06:09;100463.97;;;19.25;72.59
37610;BME280;23457;51.966;8.230;2023-08-08T11:08:37;100461.38;;;19.23;71.41
37610;BME280;23457;51.966;8.230;2023-08-08T11:11:07;100460.69;;;19.52;69.22
37610;BME280;23457;51.966;8.230;2023-08-08T11:13:34;100445.00;;;19.82;69.23
37610;BME280;23457;51.966;8.230;2023-08-08T11:16:01;100450.91;;;19.57;67.79
37610;BME280;23457;51.966;8.230;2023-08-08T11:18:28;100454.34;;;19.61;69.28
37610;BME280;23457;51.966;8.230;2023-08-08T11:20:55;100454.94;;;19.35;66.20
37610;BME280;23457;51.966;8.230;2023-08-08T11:23:38;100476.34;;;19.60;66.83
37610;BME280;23457;51.966;8.230;2023-08-08T11:26:05;100462.94;;;19.30;68.64
37610;BME280;23457;51.966;8.230;2023-08-08T11:28:35;100472.34;;;19.04;64.97
37610;BME280;23457;51.966;8.230;2023-08-08T11:31:01;100470.31;;;19.16;64.26
37610;BME280;23457;51.966;8.230;2023-08-08T11:33:29;100457.16;;;19.15;65.53
37610;BME280;23457;51.966;8.230;2023-08-08T11:35:56;100462.72;;;19.03;67.17
37610;BME280;23457;51.966;8.230;2023-08-08T11:38:23;100469.50;;;19.13;66.51
37610;BME280;23457;51.966;8.230;2023-08-08T11:40:50;100457.97;;;19.18;66.65
37610;BME280;23457;51.966;8.230;2023-08-08T11:43:19;100476.31;;;19.23;68.01
37610;BME280;23457;51.966;8.230;2023-08-08T11:45:48;100460.69;;;19.14;66.39
37610;BME280;23457;51.966;8.230;2023-08-08T11:48:15;100455.72;;;19.02;64.84
37610;BME280;23457;51.966;8.230;2023-08-08T11:50:42;100462.53;;;19.12;65.12
37610;BME280;23457;51.966;8.230;2023-08-08T11:53:11;100460.31;;;19.30;67.66
37610;BME280;23457;51.966;8.230;2023-08-08T11:55:38;100445.19;;;19.02;65.81
37610;BME280;23457;51.966;8.230;2023-08-08T11:58:05;100444.53;;;19.29;67.15
37610;BME280;23457;51.966;8.230;2023-08-08T12:00:32;100442.44;;;19.43;66.26
37610;BME280;23457;51.966;8.230;2023-08-08T12:03:01;100447.00;;;19.74;63.84
37610;BME280;23457;51.966;8.230;2023-08-08T12:05:57;100430.50;;;19.64;64.27
37610;BME280;23457;51.966;8.230;2023-08-08T12:08:24;100444.88;;;19.88;65.91
37610;BME280;23457;51.966;8.230;2023-08-08T12:10:52;100446.50;;;19.92;62.56
37610;BME280;23457;51.966;8.230;2023-08-08T12:13:22;100446.38;;;19.96;60.01
37610;BME280;23457;51.966;8.230;2023-08-08T12:15:49;100424.84;;;20.44;60.21
37610;BME280;23457;51.966;8.230;2023-08-08T12:18:17;100428.25;;;20.48;58.32
37610;BME280;23457;51.966;8.230;2023-08-08T12:20:45;100437.34;;;20.67;60.90
37610;BME280;23457;51.966;8.230;2023-08-08T12:23:12;100431.22;;;20.66;60.79
37610;BME280;23457;51.966;8.230;2023-08-08T12:25:41;100439.22;;;20.32;57.56
37610;BME280;23457;51.966;8.230;2023-08-08T12:28:09;100440.00;;;20.37;56.42
37610;BME280;23457;51.966;8.230;2023-08-08T12:30:36;100452.50;;;20.29;57.33
37610;BME280;23457;51.966;8.230;2023-08-08T12:33:02;100442.50;;;20.42;56.99
37610;BME280;23457;51.966;8.230;2023-08-08T12:35:30;100435.28;;;20.16;56.72
37610;BME280;23457;51.966;8.230;2023-08-08T12:37:57;100450.94;;;20.22;57.22
37610;BME280;23457;51.966;8.230;2023-08-08T12:40:24;100432.84;;;20.09;59.29
37610;BME280;23457;51.966;8.230;2023-08-08T12:42:52;100442.28;;;20.17;60.93
37610;BME280;23457;51.966;8.230;2023-08-08T12:45:19;100433.47;;;20.18;60.60
37610;BME280;23457;51.966;8.230;2023-08-08T12:47:45;100437.16;;;20.13;61.23
37610;BME280;23457;51.966;8.230;2023-08-08T12:50:12;100434.50;;;20.13;62.81